Baylis, Illinois
Current Conditions -  °F | °C
As of 1:15 PM on Friday 28 Nov 2014 (Local Time) from KPPQ Reporting Station
Clear Clear  
Wind Chill: 39°   Ceiling: Unl
Heat Index: 46°   Visibility: NA
Dew Point: 34°   Wind: 14mph
Humidity: 63%   Direction: 150°SSE
Pressure: 29.96"   Gusts: NA
Location:  39.73°N, 90.91°W
Report Text: KPPQ 281915Z AUTO 15012KT CLR 08/01 A2996 RMK AO2 T00750009 PWINO
Loading
Personal Weather Stations






























Interactive Weather Map New forecast layout! Learn more

10-Day Weather Forecast

Advertisements
Track Severe Weather on mobile